createdAt,value
2019-03-16T00:00:52.570Z,973.81
2019-03-16T00:01:57.232Z,973.78
2019-03-16T00:03:44.715Z,973.79
2019-03-16T00:04:44.716Z,973.76
2019-03-16T00:06:38.833Z,973.76
2019-03-16T00:07:38.222Z,973.91
2019-03-16T00:09:30.804Z,973.89
2019-03-16T00:10:30.156Z,973.92
2019-03-16T00:12:23.682Z,974.03
2019-03-16T00:13:23.019Z,973.98
2019-03-16T00:15:19.271Z,974.08
2019-03-16T00:16:17.411Z,974.09
2019-03-16T00:18:11.523Z,974.12
2019-03-16T00:19:11.326Z,974.22
2019-03-16T00:21:07.107Z,974.17
2019-03-16T00:22:06.019Z,974.22
2019-03-16T00:24:00.578Z,974.14
2019-03-16T00:24:58.995Z,974.12
2019-03-16T00:26:53.821Z,974.15
2019-03-16T00:27:51.835Z,974.24
2019-03-16T00:29:45.436Z,974.25
2019-03-16T00:30:45.406Z,974.25
2019-03-16T00:32:39.059Z,974.25
2019-03-16T00:33:38.157Z,974.14
2019-03-16T00:35:33.956Z,974.05
2019-03-16T00:36:32.715Z,974.03
2019-03-16T00:38:25.846Z,973.99
2019-03-16T00:39:25.768Z,974.05
2019-03-16T00:41:20.392Z,974.21
2019-03-16T00:42:19.129Z,974.17
2019-03-16T00:44:12.569Z,974.22
2019-03-16T00:45:11.706Z,974.26
2019-03-16T00:47:05.792Z,974.22
2019-03-16T00:48:05.177Z,974.21
2019-03-16T00:49:59.905Z,974.27
2019-03-16T00:50:58.097Z,974.33
2019-03-16T00:52:52.929Z,974.34
2019-03-16T00:53:51.716Z,974.32
2019-03-16T00:55:45.871Z,974.35
2019-03-16T00:56:43.980Z,974.41
2019-03-16T00:58:38.225Z,974.48
2019-03-16T00:59:37.278Z,974.46
2019-03-16T01:01:30.664Z,974.46
2019-03-16T01:02:32.671Z,974.41
2019-03-16T01:04:24.109Z,974.44
2019-03-16T01:05:24.638Z,974.41
2019-03-16T01:07:17.770Z,974.48
2019-03-16T01:08:17.592Z,974.46
2019-03-16T01:10:11.313Z,974.47
2019-03-16T01:11:10.062Z,974.49
2019-03-16T01:13:03.571Z,974.44
2019-03-16T01:14:02.914Z,974.45
2019-03-16T01:15:57.517Z,974.32
2019-03-16T01:16:56.854Z,974.31
2019-03-16T01:18:49.577Z,974.24
2019-03-16T01:19:48.729Z,974.21
2019-03-16T01:21:42.542Z,974.16
2019-03-16T01:22:42.252Z,974.21
2019-03-16T01:24:34.848Z,974.24
2019-03-16T01:25:34.431Z,974.21
2019-03-16T01:27:28.959Z,974.20
2019-03-16T01:28:28.642Z,974.15
2019-03-16T01:30:22.509Z,974.14
2019-03-16T01:31:21.233Z,974.13
2019-03-16T01:33:14.555Z,974.22
2019-03-16T01:34:14.043Z,974.21
2019-03-16T01:36:07.789Z,974.19
2019-03-16T01:37:06.685Z,974.22
2019-03-16T01:39:01.788Z,974.26
2019-03-16T01:40:00.373Z,974.29
2019-03-16T01:41:53.679Z,974.28
2019-03-16T01:42:52.617Z,974.26
2019-03-16T01:44:46.716Z,974.37
2019-03-16T01:45:47.234Z,974.42
2019-03-16T01:47:40.215Z,974.47
2019-03-16T01:48:38.496Z,974.49
2019-03-16T01:50:33.112Z,974.53
2019-03-16T01:51:32.821Z,974.54
2019-03-16T01:53:25.071Z,974.53
2019-03-16T01:54:24.970Z,974.63
2019-03-16T01:56:20.277Z,974.66
2019-03-16T01:57:18.945Z,974.63
2019-03-16T01:59:13.653Z,974.63
2019-03-16T02:00:12.054Z,974.68
2019-03-16T02:02:06.186Z,974.69
2019-03-16T02:03:05.626Z,974.67
2019-03-16T02:04:58.670Z,974.68
2019-03-16T02:05:57.654Z,974.69
2019-03-16T02:07:52.420Z,974.70
2019-03-16T02:08:52.464Z,974.81
2019-03-16T02:10:44.800Z,974.77
2019-03-16T02:11:43.627Z,974.72
2019-03-16T02:13:39.799Z,974.68
2019-03-16T02:14:38.745Z,974.71
2019-03-16T02:16:33.454Z,974.81
2019-03-16T02:17:33.329Z,974.83
2019-03-16T02:19:26.266Z,974.78
2019-03-16T02:20:26.199Z,974.81
2019-03-16T02:22:19.340Z,974.83
2019-03-16T02:23:18.192Z,974.84
2019-03-16T02:25:10.721Z,974.90
2019-03-16T02:26:12.346Z,974.87
2019-03-16T02:28:05.242Z,974.82
2019-03-16T02:29:05.151Z,974.83
2019-03-16T02:30:57.059Z,974.72
2019-03-16T02:31:56.987Z,974.77
2019-03-16T02:33:50.193Z,974.73
2019-03-16T02:34:49.971Z,974.75
2019-03-16T02:36:44.254Z,974.91
2019-03-16T02:37:42.943Z,974.92
2019-03-16T02:39:35.586Z,974.92
2019-03-16T02:40:36.032Z,974.98
2019-03-16T02:42:30.337Z,974.92
2019-03-16T02:43:30.032Z,974.91
2019-03-16T02:45:21.997Z,974.87
2019-03-16T02:46:21.891Z,974.94
2019-03-16T02:48:15.700Z,975.03
2019-03-16T02:49:16.104Z,975.00
2019-03-16T02:51:08.934Z,974.90
2019-03-16T02:52:07.284Z,974.91
2019-03-16T02:54:02.414Z,975.00
2019-03-16T02:55:03.122Z,975.09
2019-03-16T02:56:58.760Z,975.14
2019-03-16T02:57:58.296Z,975.15
2019-03-16T02:59:52.887Z,975.28
2019-03-16T03:00:51.157Z,975.37
2019-03-16T03:02:45.875Z,975.35
2019-03-16T03:03:44.017Z,975.33
2019-03-16T03:05:38.238Z,975.24
2019-03-16T03:06:39.331Z,975.24
2019-03-16T03:08:31.729Z,975.22
2019-03-16T03:09:32.161Z,975.25
2019-03-16T03:11:26.788Z,975.32
2019-03-16T03:12:26.137Z,975.35
2019-03-16T03:14:19.163Z,975.37
2019-03-16T03:15:18.020Z,975.34
2019-03-16T03:17:12.362Z,975.44
2019-03-16T03:18:12.023Z,975.46
2019-03-16T03:20:04.483Z,975.52
2019-03-16T03:21:03.776Z,975.50
2019-03-16T03:22:58.583Z,975.50
2019-03-16T03:23:58.203Z,975.44
2019-03-16T03:25:53.144Z,975.36
2019-03-16T03:26:52.442Z,975.37
2019-03-16T03:28:44.376Z,975.41
2019-03-16T03:29:44.732Z,975.39
2019-03-16T03:31:39.538Z,975.34
2019-03-16T03:32:37.777Z,975.29
2019-03-16T03:34:33.968Z,975.33
2019-03-16T03:35:33.979Z,975.44
2019-03-16T03:37:26.377Z,975.52
2019-03-16T03:38:25.123Z,975.48
2019-03-16T03:40:20.342Z,975.45
2019-03-16T03:41:19.592Z,975.46
2019-03-16T03:43:14.019Z,975.45
2019-03-16T03:44:12.628Z,975.44
2019-03-16T03:46:07.395Z,975.45
2019-03-16T03:47:05.872Z,975.44
2019-03-16T03:49:00.437Z,975.40
2019-03-16T03:49:59.621Z,975.45
2019-03-16T03:51:52.704Z,975.58
2019-03-16T03:52:53.127Z,975.47
2019-03-16T03:54:45.385Z,975.54
2019-03-16T03:55:46.107Z,975.52
2019-03-16T03:57:38.312Z,975.50
2019-03-16T03:58:38.298Z,975.50
2019-03-16T04:00:31.806Z,975.63
2019-03-16T04:01:30.907Z,975.62
2019-03-16T04:03:26.771Z,975.68
2019-03-16T04:04:24.951Z,975.71
2019-03-16T04:06:18.914Z,975.76
2019-03-16T04:07:20.068Z,975.78
2019-03-16T04:09:12.273Z,975.83
2019-03-16T04:10:11.283Z,975.84
2019-03-16T04:12:06.167Z,975.90
2019-03-16T04:13:05.982Z,975.97
2019-03-16T04:14:59.006Z,975.96
2019-03-16T04:15:58.930Z,975.96
2019-03-16T04:17:51.405Z,976.01
2019-03-16T04:18:52.147Z,976.01
2019-03-16T04:20:44.392Z,976.05
2019-03-16T04:21:44.090Z,976.01
2019-03-16T04:23:37.884Z,976.06
2019-03-16T04:24:37.029Z,976.09
2019-03-16T04:26:30.865Z,976.17
2019-03-16T04:27:30.496Z,976.23
2019-03-16T04:29:23.480Z,976.21
2019-03-16T04:30:23.781Z,976.20
2019-03-16T04:32:15.670Z,976.23
2019-03-16T04:33:14.909Z,976.24
2019-03-16T04:35:09.196Z,976.26
2019-03-16T04:36:08.083Z,976.28
2019-03-16T04:38:02.636Z,976.19
2019-03-16T04:39:00.823Z,976.30
2019-03-16T04:40:56.940Z,976.36
2019-03-16T04:41:56.963Z,976.40
2019-03-16T04:43:51.483Z,976.48
2019-03-16T04:44:51.907Z,976.53
2019-03-16T04:46:46.074Z,976.49
2019-03-16T04:47:44.717Z,976.50
2019-03-16T04:49:39.115Z,976.56
2019-03-16T04:50:37.363Z,976.58
2019-03-16T04:52:30.836Z,976.61
2019-03-16T04:53:29.896Z,976.73
2019-03-16T04:55:23.269Z,976.50
2019-03-16T04:56:22.909Z,976.58
2019-03-16T04:58:19.325Z,976.61
2019-03-16T04:59:18.750Z,976.52
2019-03-16T05:01:11.306Z,976.57
2019-03-16T05:02:10.935Z,976.52
2019-03-16T05:04:05.266Z,976.47
2019-03-16T05:05:03.506Z,976.59
2019-03-16T05:06:57.683Z,976.58
2019-03-16T05:07:57.077Z,976.58
2019-03-16T05:09:50.846Z,976.72
2019-03-16T05:10:50.877Z,976.65
2019-03-16T05:12:43.024Z,976.67
2019-03-16T05:13:43.010Z,976.67
2019-03-16T05:15:38.072Z,976.73
2019-03-16T05:16:37.997Z,976.71
2019-03-16T05:18:31.624Z,976.73
2019-03-16T05:19:29.910Z,976.74
2019-03-16T05:21:23.447Z,976.65
2019-03-16T05:22:22.769Z,976.79
2019-03-16T05:24:16.409Z,976.80
2019-03-16T05:25:16.641Z,976.79
2019-03-16T05:27:10.508Z,976.90
2019-03-16T05:28:09.185Z,976.87
2019-03-16T05:29:08.476Z,976.93
2019-03-16T05:30:09.976Z,976.94
2019-03-16T05:31:08.196Z,976.90
2019-03-16T05:32:08.145Z,976.97
2019-03-16T05:33:08.100Z,976.99
2019-03-16T05:34:08.076Z,977.01
2019-03-16T05:35:08.014Z,977.00
2019-03-16T05:36:07.965Z,977.03
2019-03-16T05:37:07.931Z,977.09
2019-03-16T05:38:07.894Z,977.00
2019-03-16T05:39:07.843Z,977.03
2019-03-16T05:40:07.809Z,977.05
2019-03-16T05:41:07.773Z,977.05
2019-03-16T05:42:07.730Z,977.03
2019-03-16T05:43:07.685Z,976.94
2019-03-16T05:44:07.657Z,977.00
2019-03-16T05:45:07.695Z,976.99
2019-03-16T05:46:07.633Z,977.07
2019-03-16T05:47:07.549Z,977.05
2019-03-16T05:48:07.476Z,977.08
2019-03-16T05:49:07.451Z,977.05
2019-03-16T05:50:07.399Z,977.09
2019-03-16T05:51:07.348Z,977.08
2019-03-16T05:52:07.345Z,977.07
2019-03-16T05:53:07.294Z,977.05
2019-03-16T05:54:07.262Z,977.11
2019-03-16T05:55:07.203Z,977.12
2019-03-16T05:56:07.170Z,977.12
2019-03-16T05:57:07.112Z,977.10
2019-03-16T05:58:07.094Z,977.10
2019-03-16T05:59:07.047Z,977.06
2019-03-16T06:00:09.765Z,977.08
2019-03-16T06:01:06.953Z,977.01
2019-03-16T06:02:06.937Z,977.07
2019-03-16T06:03:06.935Z,977.11
2019-03-16T06:04:06.859Z,977.09
2019-03-16T06:05:10.739Z,977.09
2019-03-16T06:06:06.781Z,977.15
2019-03-16T06:07:06.744Z,977.18
2019-03-16T06:08:06.672Z,977.13
2019-03-16T06:09:06.667Z,977.21
2019-03-16T06:10:06.602Z,977.22
2019-03-16T06:11:06.586Z,977.23
2019-03-16T06:12:06.613Z,977.25
2019-03-16T06:13:06.473Z,977.24
2019-03-16T06:14:06.444Z,977.20
2019-03-16T06:15:06.431Z,977.23
2019-03-16T06:16:06.355Z,977.29
2019-03-16T06:17:06.306Z,977.27
2019-03-16T06:18:06.332Z,977.27
2019-03-16T06:19:06.269Z,977.22
2019-03-16T06:20:06.301Z,977.28
2019-03-16T06:21:06.165Z,977.29
2019-03-16T06:22:06.227Z,977.23
2019-03-16T06:23:06.082Z,977.28
2019-03-16T06:24:06.089Z,977.27
2019-03-16T06:25:06.078Z,977.33
2019-03-16T06:26:06.009Z,977.35
2019-03-16T06:27:05.925Z,977.33
2019-03-16T06:28:05.887Z,977.33
2019-03-16T06:29:05.884Z,977.34
2019-03-16T06:30:05.794Z,977.34
2019-03-16T06:31:05.761Z,977.30
2019-03-16T06:32:05.721Z,977.34
2019-03-16T06:33:05.788Z,977.32
2019-03-16T06:34:05.645Z,977.31
2019-03-16T06:35:05.594Z,977.34
2019-03-16T06:36:05.546Z,977.35
2019-03-16T06:37:05.527Z,977.36
2019-03-16T06:38:05.487Z,977.39
2019-03-16T06:39:05.428Z,977.38
2019-03-16T06:40:05.421Z,977.38
2019-03-16T06:41:05.381Z,977.39
2019-03-16T06:42:05.327Z,977.42
2019-03-16T06:43:05.290Z,977.34
2019-03-16T06:44:05.242Z,977.36
2019-03-16T06:45:05.208Z,977.33
2019-03-16T06:46:05.242Z,977.28
2019-03-16T06:47:05.136Z,977.30
2019-03-16T06:48:05.077Z,977.31
2019-03-16T06:49:05.070Z,977.32
2019-03-16T06:50:04.987Z,977.33
2019-03-16T06:51:04.969Z,977.33
2019-03-16T06:52:04.926Z,977.31
2019-03-16T06:53:04.897Z,977.35
2019-03-16T06:54:04.849Z,977.36
2019-03-16T06:55:04.910Z,977.38
2019-03-16T06:56:04.773Z,977.37
2019-03-16T06:57:04.785Z,977.35
2019-03-16T06:58:04.677Z,977.38
2019-03-16T06:59:04.666Z,977.38
2019-03-16T07:00:04.600Z,977.41
2019-03-16T07:01:04.580Z,977.38
2019-03-16T07:02:04.587Z,977.34
2019-03-16T07:03:04.503Z,977.39
2019-03-16T07:04:04.468Z,977.37
2019-03-16T07:05:04.426Z,977.40
2019-03-16T07:06:04.421Z,977.36
2019-03-16T07:07:04.565Z,977.31
2019-03-16T07:08:04.292Z,977.32
2019-03-16T07:09:04.284Z,977.29
2019-03-16T07:10:04.238Z,977.31
2019-03-16T07:11:04.199Z,977.32
2019-03-16T07:12:04.146Z,977.32
2019-03-16T07:13:04.121Z,977.26
2019-03-16T07:14:04.067Z,977.30
2019-03-16T07:15:04.040Z,977.32
2019-03-16T07:16:03.991Z,977.27
2019-03-16T07:17:03.967Z,977.27
2019-03-16T07:18:03.922Z,977.29
2019-03-16T07:19:03.986Z,977.30
2019-03-16T07:20:03.860Z,977.29
2019-03-16T07:21:03.810Z,977.32
2019-03-16T07:22:03.828Z,977.32
2019-03-16T07:23:03.710Z,977.34
2019-03-16T07:24:03.748Z,977.38
2019-03-16T07:25:03.679Z,977.41
2019-03-16T07:26:14.343Z,977.47
2019-03-16T07:27:03.621Z,977.48
2019-03-16T07:28:04.163Z,977.50
2019-03-16T07:29:03.484Z,977.49
2019-03-16T07:30:03.459Z,977.59
2019-03-16T07:31:03.508Z,977.58
2019-03-16T07:32:03.425Z,977.54
2019-03-16T07:33:03.344Z,977.57
2019-03-16T07:34:03.296Z,977.56
2019-03-16T07:35:03.276Z,977.58
2019-03-16T07:36:03.220Z,977.57
2019-03-16T07:37:03.240Z,977.58
2019-03-16T07:38:03.158Z,977.58
2019-03-16T07:39:03.099Z,977.57
2019-03-16T07:40:03.192Z,977.57
2019-03-16T07:41:03.016Z,977.54
2019-03-16T07:42:03.042Z,977.52
2019-03-16T07:43:02.944Z,977.54
2019-03-16T07:44:02.927Z,977.53
2019-03-16T07:45:08.318Z,977.54
2019-03-16T07:46:02.867Z,977.54
2019-03-16T07:47:02.853Z,977.51
2019-03-16T07:48:02.783Z,977.51
2019-03-16T07:49:02.781Z,977.56
2019-03-16T07:50:02.670Z,977.54
2019-03-16T07:51:02.761Z,977.54
2019-03-16T07:52:02.659Z,977.53
2019-03-16T07:53:02.672Z,977.55
2019-03-16T07:54:02.547Z,977.54
2019-03-16T07:55:02.554Z,977.54
2019-03-16T07:56:02.584Z,977.53
2019-03-16T07:57:02.466Z,977.56
2019-03-16T07:58:02.637Z,977.54
2019-03-16T07:59:02.376Z,977.54
2019-03-16T08:00:02.450Z,977.56
2019-03-16T08:01:03.577Z,977.54
2019-03-16T08:02:02.272Z,977.56
2019-03-16T08:03:03.595Z,977.51
2019-03-16T08:04:02.417Z,977.50
2019-03-16T08:05:57.755Z,977.47
2019-03-16T08:06:58.109Z,977.47
2019-03-16T08:08:51.918Z,977.48
2019-03-16T08:09:51.125Z,977.49
2019-03-16T08:11:46.245Z,977.47
2019-03-16T08:12:45.079Z,977.43
2019-03-16T08:14:39.754Z,977.45
2019-03-16T08:15:38.606Z,977.39
2019-03-16T08:17:32.149Z,977.41
2019-03-16T08:18:31.387Z,977.41
2019-03-16T08:20:24.548Z,977.35
2019-03-16T08:21:23.914Z,977.33
2019-03-16T08:23:17.439Z,977.32
2019-03-16T08:24:17.213Z,977.32
2019-03-16T08:26:11.138Z,977.35
2019-03-16T08:27:10.491Z,977.35
2019-03-16T08:29:03.921Z,977.41
2019-03-16T08:30:04.982Z,977.43
2019-03-16T08:31:56.848Z,977.43
2019-03-16T08:32:57.118Z,977.39
2019-03-16T08:34:51.461Z,977.39
2019-03-16T08:35:49.731Z,977.40
2019-03-16T08:37:43.803Z,977.41
2019-03-16T08:38:42.711Z,977.42
2019-03-16T08:40:36.247Z,977.44
2019-03-16T08:41:36.128Z,977.47
2019-03-16T08:43:30.812Z,977.43
2019-03-16T08:44:30.375Z,977.46
2019-03-16T08:46:23.772Z,977.47
2019-03-16T08:47:22.038Z,977.49
2019-03-16T08:49:17.894Z,977.49
2019-03-16T08:50:16.960Z,977.48
2019-03-16T08:52:10.664Z,977.50
2019-03-16T08:53:09.949Z,977.50
2019-03-16T08:55:03.739Z,977.44
2019-03-16T08:56:02.929Z,977.43
2019-03-16T08:58:05.667Z,977.35
2019-03-16T08:58:55.466Z,977.33
2019-03-16T09:00:51.411Z,977.36
2019-03-16T09:01:51.843Z,977.36
2019-03-16T09:03:45.773Z,977.43
2019-03-16T09:04:45.549Z,977.42
2019-03-16T09:06:39.908Z,977.42
2019-03-16T09:07:38.719Z,977.42
2019-03-16T09:09:33.498Z,977.48
2019-03-16T09:10:32.748Z,977.45
2019-03-16T09:12:26.327Z,977.50
2019-03-16T09:13:25.724Z,977.51
2019-03-16T09:15:19.898Z,977.50
2019-03-16T09:16:19.616Z,977.56
2019-03-16T09:18:12.745Z,977.53
2019-03-16T09:19:12.685Z,977.55
2019-03-16T09:21:05.622Z,977.57
2019-03-16T09:22:05.096Z,977.56
2019-03-16T09:24:00.358Z,977.59
2019-03-16T09:24:59.105Z,977.65
2019-03-16T09:26:54.371Z,977.55
2019-03-16T09:27:53.024Z,977.58
2019-03-16T09:29:48.568Z,977.60
2019-03-16T09:30:47.437Z,977.61
2019-03-16T09:32:41.811Z,977.58
2019-03-16T09:33:40.861Z,977.58
2019-03-16T09:35:36.378Z,977.48
2019-03-16T09:36:35.720Z,977.53
2019-03-16T09:38:30.244Z,977.52
2019-03-16T09:39:30.126Z,977.54
2019-03-16T09:41:21.475Z,977.52
2019-03-16T09:42:22.051Z,977.48
2019-03-16T09:44:16.577Z,977.44
2019-03-16T09:45:15.917Z,977.42
2019-03-16T09:47:10.825Z,977.34
2019-03-16T09:48:09.866Z,977.38
2019-03-16T09:50:03.314Z,977.30
2019-03-16T09:51:04.033Z,977.24
2019-03-16T09:52:56.240Z,977.27
2019-03-16T09:53:56.408Z,977.21
2019-03-16T09:55:53.190Z,977.11
2019-03-16T09:57:01.085Z,977.14
2019-03-16T09:58:48.234Z,977.22
2019-03-16T09:59:47.466Z,977.23
2019-03-16T10:01:40.488Z,977.09
2019-03-16T10:02:40.055Z,977.11
2019-03-16T10:04:37.423Z,977.15
2019-03-16T10:05:37.251Z,977.18
2019-03-16T10:07:31.515Z,977.09
2019-03-16T10:08:31.572Z,977.07
2019-03-16T10:10:24.355Z,977.04
2019-03-16T10:11:23.684Z,977.03
2019-03-16T10:13:19.340Z,977.05
2019-03-16T10:14:18.171Z,977.00
2019-03-16T10:16:12.556Z,977.01
2019-03-16T10:17:11.692Z,976.96
2019-03-16T10:19:04.778Z,976.90
2019-03-16T10:20:05.176Z,976.87
2019-03-16T10:21:58.683Z,976.82
2019-03-16T10:22:58.658Z,976.85
2019-03-16T10:24:51.852Z,976.76
2019-03-16T10:25:51.916Z,976.80
2019-03-16T10:27:45.664Z,976.80
2019-03-16T10:28:45.576Z,976.80
2019-03-16T10:30:40.281Z,976.77
2019-03-16T10:31:38.570Z,976.79
2019-03-16T10:33:33.343Z,976.78
2019-03-16T10:34:31.996Z,976.76
2019-03-16T10:36:26.161Z,976.78
2019-03-16T10:37:25.631Z,976.72
2019-03-16T10:39:18.584Z,976.69
2019-03-16T10:40:17.473Z,976.73
2019-03-16T10:42:12.038Z,976.67
2019-03-16T10:43:10.968Z,976.71
2019-03-16T10:45:04.532Z,976.68
2019-03-16T10:46:03.261Z,976.67
2019-03-16T10:47:03.217Z,976.71
2019-03-16T10:48:04.799Z,976.70
2019-03-16T10:49:02.847Z,976.69
2019-03-16T10:50:02.841Z,976.63
2019-03-16T10:51:02.785Z,976.65
2019-03-16T10:52:02.737Z,976.68
2019-03-16T10:53:02.665Z,976.67
2019-03-16T10:54:02.662Z,976.64
2019-03-16T10:55:02.642Z,976.60
2019-03-16T10:56:02.609Z,976.59
2019-03-16T10:57:04.419Z,976.59
2019-03-16T10:58:02.475Z,976.57
2019-03-16T10:59:02.445Z,976.55
2019-03-16T11:00:02.420Z,976.56
2019-03-16T11:01:02.373Z,976.55
2019-03-16T11:02:02.327Z,976.60
2019-03-16T11:03:02.340Z,976.56
2019-03-16T11:04:02.255Z,976.57
2019-03-16T11:05:02.262Z,976.61
2019-03-16T11:06:02.200Z,976.63
2019-03-16T11:07:02.126Z,976.61
2019-03-16T11:08:02.123Z,976.56
2019-03-16T11:09:02.092Z,976.54
2019-03-16T11:10:02.042Z,976.54
2019-03-16T11:11:02.049Z,976.51
2019-03-16T11:12:01.948Z,976.54
2019-03-16T11:13:02.053Z,976.55
2019-03-16T11:14:01.908Z,976.49
2019-03-16T11:15:01.859Z,976.51
2019-03-16T11:16:01.805Z,976.50
2019-03-16T11:17:01.789Z,976.52
2019-03-16T11:18:01.769Z,976.51
2019-03-16T11:19:01.706Z,976.45
2019-03-16T11:20:01.649Z,976.46
2019-03-16T11:21:01.634Z,976.40
2019-03-16T11:22:01.637Z,976.38
2019-03-16T11:23:01.574Z,976.32
2019-03-16T11:24:01.510Z,976.31
2019-03-16T11:25:01.524Z,976.28
2019-03-16T11:26:01.434Z,976.29
2019-03-16T11:27:01.394Z,976.22
2019-03-16T11:28:01.366Z,976.23
2019-03-16T11:29:08.866Z,976.19
2019-03-16T11:30:01.280Z,976.17
2019-03-16T11:31:01.310Z,976.16
2019-03-16T11:32:01.253Z,976.14
2019-03-16T11:33:01.186Z,976.08
2019-03-16T11:34:01.165Z,976.03
2019-03-16T11:35:01.134Z,976.00
2019-03-16T11:36:01.091Z,975.98
2019-03-16T11:37:01.035Z,975.94
2019-03-16T11:38:01.031Z,975.96
2019-03-16T11:39:00.966Z,975.97
2019-03-16T11:40:00.954Z,975.96
2019-03-16T11:41:00.898Z,975.97
2019-03-16T11:42:00.905Z,975.98
2019-03-16T11:43:00.815Z,975.98
2019-03-16T11:44:00.796Z,975.93
2019-03-16T11:45:00.754Z,975.93
2019-03-16T11:46:00.734Z,975.93
2019-03-16T11:47:00.679Z,975.90
2019-03-16T11:48:00.668Z,975.87
2019-03-16T11:49:00.606Z,975.84
2019-03-16T11:50:00.575Z,975.88
2019-03-16T11:51:00.538Z,975.87
2019-03-16T11:52:00.553Z,975.85
2019-03-16T11:53:00.483Z,975.83
2019-03-16T11:54:00.472Z,975.77
2019-03-16T11:55:00.405Z,975.79
2019-03-16T11:56:00.368Z,975.85
2019-03-16T11:57:00.343Z,975.80
2019-03-16T11:58:00.293Z,975.75
2019-03-16T11:59:00.271Z,975.74
2019-03-16T12:00:00.288Z,975.73
2019-03-16T12:01:00.181Z,975.72
2019-03-16T12:02:05.151Z,975.73
2019-03-16T12:03:00.130Z,975.70
2019-03-16T12:04:00.084Z,975.70
2019-03-16T12:05:00.057Z,975.74
2019-03-16T12:06:00.015Z,975.64
2019-03-16T12:06:59.998Z,975.72
2019-03-16T12:07:59.955Z,975.67
2019-03-16T12:08:59.920Z,975.68
2019-03-16T12:09:59.889Z,975.65
2019-03-16T12:10:59.840Z,975.64
2019-03-16T12:11:59.936Z,975.63
2019-03-16T12:12:59.830Z,975.59
2019-03-16T12:13:59.764Z,975.58
2019-03-16T12:14:59.716Z,975.61
2019-03-16T12:15:59.678Z,975.59
2019-03-16T12:16:59.820Z,975.59
2019-03-16T12:17:59.619Z,975.62
2019-03-16T12:18:59.626Z,975.57
2019-03-16T12:20:01.426Z,975.55
2019-03-16T12:20:59.525Z,975.52
2019-03-16T12:21:59.523Z,975.51
2019-03-16T12:22:59.456Z,975.51
2019-03-16T12:23:59.446Z,975.52
2019-03-16T12:24:59.404Z,975.49
2019-03-16T12:25:59.356Z,975.46
2019-03-16T12:26:59.404Z,975.44
2019-03-16T12:27:59.285Z,975.39
2019-03-16T12:28:59.316Z,975.41
2019-03-16T12:29:59.220Z,975.39
2019-03-16T12:30:59.208Z,975.33
2019-03-16T12:31:59.192Z,975.41
2019-03-16T12:32:59.111Z,975.23
2019-03-16T12:33:59.110Z,975.32
2019-03-16T12:34:59.061Z,975.34
2019-03-16T12:35:59.033Z,975.30
2019-03-16T12:36:59.048Z,975.33
2019-03-16T12:37:58.951Z,975.30
2019-03-16T12:38:58.922Z,975.32
2019-03-16T12:39:58.907Z,975.30
2019-03-16T12:40:58.854Z,975.30
2019-03-16T12:41:58.822Z,975.29
2019-03-16T12:42:58.806Z,975.27
2019-03-16T12:43:58.782Z,975.33
2019-03-16T12:44:58.746Z,975.33
2019-03-16T12:45:58.831Z,975.23
2019-03-16T12:46:58.653Z,975.23
2019-03-16T12:47:58.631Z,975.24
2019-03-16T12:48:58.599Z,975.26
2019-03-16T12:49:58.567Z,975.25
2019-03-16T12:50:58.544Z,975.26
2019-03-16T12:51:58.504Z,975.22
2019-03-16T12:52:58.467Z,975.19
2019-03-16T12:53:58.424Z,975.17
2019-03-16T12:54:58.405Z,975.15
2019-03-16T12:55:58.344Z,975.09
2019-03-16T12:56:58.351Z,975.02
2019-03-16T12:57:58.381Z,975.05
2019-03-16T12:59:10.078Z,975.01
2019-03-16T12:59:58.365Z,974.97
2019-03-16T13:00:58.266Z,974.92
2019-03-16T13:01:58.139Z,974.93
2019-03-16T13:02:58.151Z,974.92
2019-03-16T13:03:58.151Z,974.93
2019-03-16T13:04:58.080Z,974.95
2019-03-16T13:05:58.026Z,974.93
2019-03-16T13:06:57.990Z,974.91
2019-03-16T13:07:57.955Z,974.84
2019-03-16T13:08:57.915Z,974.92
2019-03-16T13:09:57.889Z,974.91
2019-03-16T13:10:57.836Z,974.88
2019-03-16T13:11:57.807Z,974.93
2019-03-16T13:12:57.787Z,974.90
2019-03-16T13:13:57.794Z,974.88
2019-03-16T13:14:57.728Z,974.92
2019-03-16T13:15:57.677Z,974.94
2019-03-16T13:16:57.633Z,974.91
2019-03-16T13:17:57.622Z,974.92
2019-03-16T13:18:57.573Z,974.86
2019-03-16T13:19:57.547Z,974.89
2019-03-16T13:20:57.517Z,974.92
2019-03-16T13:21:57.475Z,974.87
2019-03-16T13:22:57.463Z,974.84
2019-03-16T13:23:57.458Z,974.89
2019-03-16T13:24:57.372Z,974.85
2019-03-16T13:25:57.334Z,974.84
2019-03-16T13:26:57.319Z,974.81
2019-03-16T13:27:57.273Z,974.88
2019-03-16T13:28:57.264Z,974.85
2019-03-16T13:29:59.168Z,974.91
2019-03-16T13:30:57.205Z,974.95
2019-03-16T13:31:57.136Z,974.94
2019-03-16T13:32:57.095Z,974.98
2019-03-16T13:33:57.071Z,974.91
2019-03-16T13:34:57.062Z,974.89
2019-03-16T13:35:57.084Z,974.88
2019-03-16T13:36:56.972Z,974.87
2019-03-16T13:37:57.035Z,974.80
2019-03-16T13:38:56.895Z,974.81
2019-03-16T13:39:56.919Z,974.76
2019-03-16T13:40:56.858Z,974.77
2019-03-16T13:41:56.848Z,974.78
2019-03-16T13:42:56.752Z,974.76
2019-03-16T13:43:56.722Z,974.79
2019-03-16T13:44:56.708Z,974.73
2019-03-16T13:45:56.674Z,974.83
2019-03-16T13:46:56.641Z,974.70
2019-03-16T13:47:56.766Z,974.77
2019-03-16T13:48:56.549Z,974.86
2019-03-16T13:49:56.522Z,974.86
2019-03-16T13:50:56.495Z,974.79
2019-03-16T13:51:56.538Z,974.90
2019-03-16T13:52:56.430Z,974.78
2019-03-16T13:53:56.388Z,974.81
2019-03-16T13:54:56.343Z,974.80
2019-03-16T13:55:56.311Z,974.93
2019-03-16T13:56:56.497Z,974.93
2019-03-16T13:57:56.248Z,974.91
2019-03-16T13:58:56.205Z,974.94
2019-03-16T13:59:56.175Z,974.96
2019-03-16T14:00:56.161Z,974.95
2019-03-16T14:01:56.236Z,974.88
2019-03-16T14:02:56.089Z,974.96
2019-03-16T14:03:56.023Z,975.01
2019-03-16T14:04:55.980Z,974.95
2019-03-16T14:05:55.957Z,974.98
2019-03-16T14:06:55.913Z,974.83
2019-03-16T14:07:55.904Z,974.94
2019-03-16T14:08:55.856Z,974.98
2019-03-16T14:09:55.836Z,974.91
2019-03-16T14:10:55.790Z,974.96
2019-03-16T14:11:55.749Z,974.96
2019-03-16T14:12:55.734Z,974.94
2019-03-16T14:13:55.809Z,975.00
2019-03-16T14:14:55.697Z,974.95
2019-03-16T14:15:55.597Z,974.94
2019-03-16T14:16:55.575Z,974.96
2019-03-16T14:17:57.964Z,974.85
2019-03-16T14:18:55.497Z,974.93
2019-03-16T14:19:55.465Z,974.89
2019-03-16T14:20:55.426Z,974.96
2019-03-16T14:21:55.394Z,974.92
2019-03-16T14:22:55.363Z,974.93
2019-03-16T14:23:55.317Z,974.89
2019-03-16T14:24:55.300Z,974.93
2019-03-16T14:25:55.249Z,974.94
2019-03-16T14:26:55.206Z,974.89
2019-03-16T14:27:55.204Z,974.95
2019-03-16T14:28:55.146Z,974.89
2019-03-16T14:29:55.146Z,974.89
2019-03-16T14:30:55.070Z,974.88
2019-03-16T14:31:55.086Z,974.95
2019-03-16T14:32:55.005Z,974.86
2019-03-16T14:33:55.026Z,974.85
2019-03-16T14:34:54.948Z,974.83
2019-03-16T14:35:54.986Z,974.88
2019-03-16T14:36:57.243Z,974.91
2019-03-16T14:37:54.880Z,974.82
2019-03-16T14:38:54.783Z,974.88
2019-03-16T14:39:54.799Z,974.90
2019-03-16T14:40:54.742Z,974.83
2019-03-16T14:41:54.694Z,974.70
2019-03-16T14:42:54.686Z,974.87
2019-03-16T14:43:54.889Z,974.76
2019-03-16T14:44:54.571Z,974.77
2019-03-16T14:45:54.567Z,974.80
2019-03-16T14:46:54.508Z,974.86
2019-03-16T14:47:54.484Z,974.80
2019-03-16T14:48:54.562Z,974.78
2019-03-16T14:49:54.399Z,974.73
2019-03-16T14:50:54.358Z,974.76
2019-03-16T14:51:54.320Z,974.80
2019-03-16T14:52:54.392Z,974.65
2019-03-16T14:53:54.263Z,974.72
2019-03-16T14:54:54.238Z,974.78
2019-03-16T14:55:56.382Z,974.68
2019-03-16T14:56:54.155Z,974.73
2019-03-16T14:57:54.097Z,974.78
2019-03-16T14:58:54.355Z,974.72